sensor_id;sensor_type;location;lat;lon;timestamp;P1;durP1;ratioP1;P2;durP2;ratioP2
77076;SDS011;66003;52.286;104.306;2023-05-29T00:01:33;4.43;;;1.52;;
77076;SDS011;66003;52.286;104.306;2023-05-29T00:04:01;5.20;;;2.05;;
77076;SDS011;66003;52.286;104.306;2023-05-29T00:06:28;8.25;;;1.98;;
77076;SDS011;66003;52.286;104.306;2023-05-29T00:08:55;6.07;;;2.20;;
77076;SDS011;66003;52.286;104.306;2023-05-29T00:11:21;9.70;;;1.70;;
77076;SDS011;66003;52.286;104.306;2023-05-29T00:13:48;9.35;;;2.22;;
77076;SDS011;66003;52.286;104.306;2023-05-29T00:16:14;9.77;;;2.15;;
77076;SDS011;66003;52.286;104.306;2023-05-29T00:18:43;10.50;;;3.10;;
77076;SDS011;66003;52.286;104.306;2023-05-29T00:21:12;10.85;;;2.60;;
77076;SDS011;66003;52.286;104.306;2023-05-29T00:23:40;9.23;;;2.22;;
77076;SDS011;66003;52.286;104.306;2023-05-29T00:26:09;13.70;;;2.78;;
77076;SDS011;66003;52.286;104.306;2023-05-29T00:28:36;7.65;;;2.70;;
77076;SDS011;66003;52.286;104.306;2023-05-29T00:31:02;8.48;;;3.30;;
77076;SDS011;66003;52.286;104.306;2023-05-29T00:33:28;9.77;;;3.33;;
77076;SDS011;66003;52.286;104.306;2023-05-29T00:35:54;9.23;;;2.58;;
77076;SDS011;66003;52.286;104.306;2023-05-29T00:38:21;10.95;;;2.60;;
77076;SDS011;66003;52.286;104.306;2023-05-29T00:40:47;10.45;;;2.97;;
77076;SDS011;66003;52.286;104.306;2023-05-29T00:43:13;10.30;;;2.60;;
77076;SDS011;66003;52.286;104.306;2023-05-29T00:45:39;6.57;;;2.70;;
77076;SDS011;66003;52.286;104.306;2023-05-29T00:48:06;13.00;;;3.35;;
77076;SDS011;66003;52.286;104.306;2023-05-29T00:50:34;7.80;;;2.75;;
77076;SDS011;66003;52.286;104.306;2023-05-29T00:53:00;10.85;;;3.08;;
77076;SDS011;66003;52.286;104.306;2023-05-29T00:55:28;15.15;;;3.25;;
77076;SDS011;66003;52.286;104.306;2023-05-29T00:57:56;10.75;;;4.03;;
77076;SDS011;66003;52.286;104.306;2023-05-29T01:00:22;7.65;;;3.38;;
77076;SDS011;66003;52.286;104.306;2023-05-29T01:02:49;7.30;;;3.13;;
77076;SDS011;66003;52.286;104.306;2023-05-29T01:05:18;9.13;;;3.72;;
77076;SDS011;66003;52.286;104.306;2023-05-29T01:07:45;6.18;;;3.95;;
77076;SDS011;66003;52.286;104.306;2023-05-29T01:10:12;10.10;;;3.15;;
77076;SDS011;66003;52.286;104.306;2023-05-29T01:18:03;4.55;;;1.10;;
77076;SDS011;66003;52.286;104.306;2023-05-29T01:23:11;10.50;;;3.28;;
77076;SDS011;66003;52.286;104.306;2023-05-29T01:29:00;6.53;;;2.00;;
77076;SDS011;66003;52.286;104.306;2023-05-29T01:31:28;8.02;;;2.03;;
77076;SDS011;66003;52.286;104.306;2023-05-29T01:33:56;5.95;;;2.35;;
77076;SDS011;66003;52.286;104.306;2023-05-29T01:36:24;8.40;;;1.67;;
77076;SDS011;66003;52.286;104.306;2023-05-29T01:38:51;4.30;;;1.60;;
77076;SDS011;66003;52.286;104.306;2023-05-29T01:41:19;3.58;;;1.30;;
77076;SDS011;66003;52.286;104.306;2023-05-29T01:43:47;3.78;;;1.73;;
77076;SDS011;66003;52.286;104.306;2023-05-29T01:46:14;4.07;;;1.90;;
77076;SDS011;66003;52.286;104.306;2023-05-29T01:48:42;3.65;;;1.55;;
77076;SDS011;66003;52.286;104.306;2023-05-29T01:51:09;4.57;;;1.35;;
77076;SDS011;66003;52.286;104.306;2023-05-29T01:53:37;6.57;;;2.00;;
77076;SDS011;66003;52.286;104.306;2023-05-29T01:56:05;4.10;;;1.10;;
77076;SDS011;66003;52.286;104.306;2023-05-29T01:58:32;3.97;;;1.27;;
77076;SDS011;66003;52.286;104.306;2023-05-29T02:01:04;2.95;;;1.10;;
77076;SDS011;66003;52.286;104.306;2023-05-29T02:03:32;3.95;;;1.40;;
77076;SDS011;66003;52.286;104.306;2023-05-29T02:06:00;4.90;;;1.85;;
77076;SDS011;66003;52.286;104.306;2023-05-29T02:08:27;2.78;;;1.25;;
77076;SDS011;66003;52.286;104.306;2023-05-29T02:10:54;2.78;;;1.17;;
77076;SDS011;66003;52.286;104.306;2023-05-29T02:13:20;2.85;;;1.75;;
77076;SDS011;66003;52.286;104.306;2023-05-29T02:15:47;1.10;;;0.82;;
77076;SDS011;66003;52.286;104.306;2023-05-29T02:18:14;3.13;;;1.77;;
77076;SDS011;66003;52.286;104.306;2023-05-29T02:20:43;2.42;;;1.45;;
77076;SDS011;66003;52.286;104.306;2023-05-29T02:23:09;1.90;;;1.38;;
77076;SDS011;66003;52.286;104.306;2023-05-29T02:25:36;2.80;;;1.75;;
77076;SDS011;66003;52.286;104.306;2023-05-29T02:28:02;3.45;;;1.45;;
77076;SDS011;66003;52.286;104.306;2023-05-29T02:30:29;2.78;;;1.52;;
77076;SDS011;66003;52.286;104.306;2023-05-29T02:32:56;1.77;;;1.58;;
77076;SDS011;66003;52.286;104.306;2023-05-29T02:35:22;2.50;;;0.90;;
77076;SDS011;66003;52.286;104.306;2023-05-29T02:37:49;2.67;;;1.25;;
77076;SDS011;66003;52.286;104.306;2023-05-29T02:40:16;1.38;;;1.10;;
77076;SDS011;66003;52.286;104.306;2023-05-29T02:42:43;3.15;;;1.20;;
77076;SDS011;66003;52.286;104.306;2023-05-29T02:45:10;2.85;;;1.67;;
77076;SDS011;66003;52.286;104.306;2023-05-29T02:47:36;4.57;;;1.60;;
77076;SDS011;66003;52.286;104.306;2023-05-29T02:50:02;3.28;;;1.30;;
77076;SDS011;66003;52.286;104.306;2023-05-29T02:52:31;2.72;;;1.23;;
77076;SDS011;66003;52.286;104.306;2023-05-29T02:54:58;2.42;;;0.90;;
77076;SDS011;66003;52.286;104.306;2023-05-29T02:57:25;4.10;;;1.60;;
77076;SDS011;66003;52.286;104.306;2023-05-29T02:59:51;1.80;;;0.95;;
77076;SDS011;66003;52.286;104.306;2023-05-29T03:02:18;2.60;;;0.85;;
77076;SDS011;66003;52.286;104.306;2023-05-29T03:04:44;5.75;;;0.73;;
77076;SDS011;66003;52.286;104.306;2023-05-29T03:07:11;1.98;;;1.33;;
77076;SDS011;66003;52.286;104.306;2023-05-29T03:09:38;2.05;;;1.13;;
77076;SDS011;66003;52.286;104.306;2023-05-29T03:12:04;3.17;;;1.13;;
77076;SDS011;66003;52.286;104.306;2023-05-29T03:14:31;2.33;;;1.08;;
77076;SDS011;66003;52.286;104.306;2023-05-29T03:17:04;1.05;;;0.43;;
77076;SDS011;66003;52.286;104.306;2023-05-29T03:19:32;2.38;;;0.85;;
77076;SDS011;66003;52.286;104.306;2023-05-29T03:21:58;2.47;;;0.95;;
77076;SDS011;66003;52.286;104.306;2023-05-29T03:24:24;2.78;;;0.90;;
77076;SDS011;66003;52.286;104.306;2023-05-29T03:26:50;4.00;;;0.75;;
77076;SDS011;66003;52.286;104.306;2023-05-29T03:29:17;2.30;;;0.68;;
77076;SDS011;66003;52.286;104.306;2023-05-29T03:31:43;2.17;;;1.10;;
77076;SDS011;66003;52.286;104.306;2023-05-29T03:34:10;1.50;;;1.35;;
77076;SDS011;66003;52.286;104.306;2023-05-29T03:36:36;3.08;;;0.93;;
77076;SDS011;66003;52.286;104.306;2023-05-29T03:39:02;1.67;;;0.95;;
77076;SDS011;66003;52.286;104.306;2023-05-29T03:41:29;1.25;;;0.73;;
77076;SDS011;66003;52.286;104.306;2023-05-29T03:43:55;2.13;;;1.15;;
77076;SDS011;66003;52.286;104.306;2023-05-29T03:46:21;1.58;;;0.60;;
77076;SDS011;66003;52.286;104.306;2023-05-29T03:48:47;1.30;;;0.82;;
77076;SDS011;66003;52.286;104.306;2023-05-29T03:51:14;2.42;;;0.82;;
77076;SDS011;66003;52.286;104.306;2023-05-29T03:53:40;2.90;;;0.88;;
77076;SDS011;66003;52.286;104.306;2023-05-29T03:56:06;1.67;;;0.93;;
77076;SDS011;66003;52.286;104.306;2023-05-29T03:58:33;2.70;;;1.13;;
77076;SDS011;66003;52.286;104.306;2023-05-29T04:00:59;1.65;;;0.52;;
77076;SDS011;66003;52.286;104.306;2023-05-29T04:03:25;1.13;;;0.85;;
77076;SDS011;66003;52.286;104.306;2023-05-29T04:05:52;2.60;;;1.08;;
77076;SDS011;66003;52.286;104.306;2023-05-29T04:08:18;1.85;;;1.20;;
77076;SDS011;66003;52.286;104.306;2023-05-29T04:10:44;4.60;;;0.80;;
77076;SDS011;66003;52.286;104.306;2023-05-29T04:13:11;2.10;;;0.57;;
77076;SDS011;66003;52.286;104.306;2023-05-29T04:15:38;2.95;;;0.63;;
77076;SDS011;66003;52.286;104.306;2023-05-29T04:18:04;2.63;;;0.55;;
77076;SDS011;66003;52.286;104.306;2023-05-29T04:20:30;2.25;;;0.63;;
77076;SDS011;66003;52.286;104.306;2023-05-29T04:22:56;3.35;;;0.82;;
77076;SDS011;66003;52.286;104.306;2023-05-29T04:25:23;1.42;;;0.77;;
77076;SDS011;66003;52.286;104.306;2023-05-29T04:27:49;3.55;;;0.82;;
77076;SDS011;66003;52.286;104.306;2023-05-29T04:30:15;0.95;;;0.82;;
77076;SDS011;66003;52.286;104.306;2023-05-29T04:32:42;1.80;;;0.52;;
77076;SDS011;66003;52.286;104.306;2023-05-29T04:35:09;1.00;;;0.50;;
77076;SDS011;66003;52.286;104.306;2023-05-29T04:37:36;2.00;;;0.75;;
77076;SDS011;66003;52.286;104.306;2023-05-29T04:40:05;3.08;;;0.60;;
77076;SDS011;66003;52.286;104.306;2023-05-29T04:42:36;0.68;;;0.20;;
77076;SDS011;66003;52.286;104.306;2023-05-29T04:45:03;2.28;;;0.20;;
77076;SDS011;66003;52.286;104.306;2023-05-29T04:47:36;0.93;;;0.52;;
77076;SDS011;66003;52.286;104.306;2023-05-29T04:50:12;0.98;;;0.10;;
77076;SDS011;66003;52.286;104.306;2023-05-29T04:52:39;1.02;;;0.45;;
77076;SDS011;66003;52.286;104.306;2023-05-29T04:55:05;0.93;;;0.22;;
77076;SDS011;66003;52.286;104.306;2023-05-29T04:57:31;2.13;;;0.17;;
77076;SDS011;66003;52.286;104.306;2023-05-29T04:59:58;1.55;;;0.45;;
77076;SDS011;66003;52.286;104.306;2023-05-29T05:02:24;2.67;;;0.28;;
77076;SDS011;66003;52.286;104.306;2023-05-29T05:04:50;2.17;;;0.30;;
77076;SDS011;66003;52.286;104.306;2023-05-29T05:07:16;1.80;;;0.17;;
77076;SDS011;66003;52.286;104.306;2023-05-29T05:09:43;1.60;;;0.32;;
77076;SDS011;66003;52.286;104.306;2023-05-29T05:12:09;1.52;;;0.55;;
77076;SDS011;66003;52.286;104.306;2023-05-29T05:14:35;2.67;;;0.32;;
77076;SDS011;66003;52.286;104.306;2023-05-29T05:17:01;1.38;;;0.68;;
77076;SDS011;66003;52.286;104.306;2023-05-29T05:19:28;3.13;;;0.50;;
77076;SDS011;66003;52.286;104.306;2023-05-29T05:21:54;4.43;;;1.10;;
77076;SDS011;66003;52.286;104.306;2023-05-29T05:24:21;1.52;;;0.80;;
77076;SDS011;66003;52.286;104.306;2023-05-29T05:26:47;1.27;;;0.77;;
77076;SDS011;66003;52.286;104.306;2023-05-29T05:29:13;1.15;;;0.28;;
77076;SDS011;66003;52.286;104.306;2023-05-29T05:31:40;2.28;;;0.40;;
77076;SDS011;66003;52.286;104.306;2023-05-29T05:34:06;1.30;;;0.40;;
77076;SDS011;66003;52.286;104.306;2023-05-29T05:36:32;2.30;;;0.50;;
77076;SDS011;66003;52.286;104.306;2023-05-29T05:38:58;0.82;;;0.43;;
77076;SDS011;66003;52.286;104.306;2023-05-29T05:41:25;4.75;;;0.95;;
77076;SDS011;66003;52.286;104.306;2023-05-29T05:43:52;2.15;;;0.73;;
77076;SDS011;66003;52.286;104.306;2023-05-29T05:46:18;1.77;;;0.55;;
77076;SDS011;66003;52.286;104.306;2023-05-29T05:48:44;1.20;;;0.40;;
77076;SDS011;66003;52.286;104.306;2023-05-29T05:51:10;2.33;;;0.63;;
77076;SDS011;66003;52.286;104.306;2023-05-29T05:53:37;1.98;;;0.85;;
77076;SDS011;66003;52.286;104.306;2023-05-29T05:56:04;1.30;;;0.20;;
77076;SDS011;66003;52.286;104.306;2023-05-29T05:58:31;2.08;;;0.52;;
77076;SDS011;66003;52.286;104.306;2023-05-29T06:00:57;1.55;;;0.98;;
77076;SDS011;66003;52.286;104.306;2023-05-29T06:03:23;1.33;;;0.40;;
77076;SDS011;66003;52.286;104.306;2023-05-29T06:05:50;2.05;;;0.38;;
77076;SDS011;66003;52.286;104.306;2023-05-29T06:08:17;1.60;;;0.30;;
77076;SDS011;66003;52.286;104.306;2023-05-29T06:10:46;0.77;;;0.47;;
77076;SDS011;66003;52.286;104.306;2023-05-29T06:13:13;3.40;;;0.75;;
77076;SDS011;66003;52.286;104.306;2023-05-29T06:15:40;0.98;;;0.20;;
77076;SDS011;66003;52.286;104.306;2023-05-29T06:18:06;2.03;;;0.75;;
77076;SDS011;66003;52.286;104.306;2023-05-29T06:20:32;1.88;;;0.65;;
77076;SDS011;66003;52.286;104.306;2023-05-29T06:22:59;1.00;;;0.28;;
77076;SDS011;66003;52.286;104.306;2023-05-29T06:25:25;1.67;;;0.75;;
77076;SDS011;66003;52.286;104.306;2023-05-29T06:28:01;1.25;;;0.73;;
77076;SDS011;66003;52.286;104.306;2023-05-29T06:30:28;1.60;;;0.50;;
77076;SDS011;66003;52.286;104.306;2023-05-29T06:32:55;2.22;;;0.57;;
77076;SDS011;66003;52.286;104.306;2023-05-29T06:35:21;1.40;;;0.68;;
77076;SDS011;66003;52.286;104.306;2023-05-29T06:37:47;1.90;;;1.17;;
77076;SDS011;66003;52.286;104.306;2023-05-29T06:40:14;2.00;;;0.85;;
77076;SDS011;66003;52.286;104.306;2023-05-29T06:42:41;3.78;;;0.73;;
77076;SDS011;66003;52.286;104.306;2023-05-29T06:45:11;1.02;;;0.50;;
77076;SDS011;66003;52.286;104.306;2023-05-29T06:47:43;0.63;;;0.15;;
77076;SDS011;66003;52.286;104.306;2023-05-29T06:50:09;0.80;;;0.32;;
77076;SDS011;66003;52.286;104.306;2023-05-29T06:52:36;2.70;;;0.65;;
77076;SDS011;66003;52.286;104.306;2023-05-29T06:55:02;1.88;;;0.77;;
77076;SDS011;66003;52.286;104.306;2023-05-29T06:57:30;2.80;;;0.45;;
77076;SDS011;66003;52.286;104.306;2023-05-29T06:59:56;1.83;;;0.90;;
77076;SDS011;66003;52.286;104.306;2023-05-29T07:02:23;3.50;;;0.63;;
77076;SDS011;66003;52.286;104.306;2023-05-29T07:04:49;1.75;;;0.63;;
77076;SDS011;66003;52.286;104.306;2023-05-29T07:07:16;2.58;;;0.38;;
77076;SDS011;66003;52.286;104.306;2023-05-29T07:09:42;1.63;;;0.63;;
77076;SDS011;66003;52.286;104.306;2023-05-29T07:12:08;1.27;;;0.73;;
77076;SDS011;66003;52.286;104.306;2023-05-29T07:14:34;1.77;;;0.85;;
77076;SDS011;66003;52.286;104.306;2023-05-29T07:17:01;1.88;;;0.63;;
77076;SDS011;66003;52.286;104.306;2023-05-29T07:19:27;1.55;;;0.32;;
77076;SDS011;66003;52.286;104.306;2023-05-29T07:21:54;2.50;;;1.00;;
77076;SDS011;66003;52.286;104.306;2023-05-29T07:24:20;1.45;;;0.63;;
77076;SDS011;66003;52.286;104.306;2023-05-29T07:26:47;2.15;;;0.65;;
77076;SDS011;66003;52.286;104.306;2023-05-29T07:29:13;2.80;;;0.80;;
77076;SDS011;66003;52.286;104.306;2023-05-29T07:31:40;2.60;;;0.40;;
77076;SDS011;66003;52.286;104.306;2023-05-29T07:34:06;2.42;;;1.00;;
77076;SDS011;66003;52.286;104.306;2023-05-29T07:36:32;2.50;;;0.82;;
77076;SDS011;66003;52.286;104.306;2023-05-29T07:38:58;2.67;;;0.80;;
77076;SDS011;66003;52.286;104.306;2023-05-29T07:41:25;2.00;;;0.50;;
77076;SDS011;66003;52.286;104.306;2023-05-29T07:43:52;1.50;;;0.60;;
77076;SDS011;66003;52.286;104.306;2023-05-29T07:46:19;2.20;;;1.30;;
77076;SDS011;66003;52.286;104.306;2023-05-29T07:48:45;4.80;;;0.73;;
77076;SDS011;66003;52.286;104.306;2023-05-29T07:51:12;1.83;;;0.63;;
77076;SDS011;66003;52.286;104.306;2023-05-29T07:53:38;2.22;;;0.80;;
77076;SDS011;66003;52.286;104.306;2023-05-29T07:56:04;3.40;;;0.60;;
77076;SDS011;66003;52.286;104.306;2023-05-29T07:58:31;2.03;;;1.45;;
77076;SDS011;66003;52.286;104.306;2023-05-29T08:00:58;3.67;;;0.60;;
77076;SDS011;66003;52.286;104.306;2023-05-29T08:03:24;1.60;;;0.90;;
77076;SDS011;66003;52.286;104.306;2023-05-29T08:05:51;1.45;;;1.15;;
77076;SDS011;66003;52.286;104.306;2023-05-29T08:08:17;2.17;;;0.68;;
77076;SDS011;66003;52.286;104.306;2023-05-29T08:10:43;1.88;;;1.02;;
77076;SDS011;66003;52.286;104.306;2023-05-29T08:13:10;2.38;;;0.77;;
77076;SDS011;66003;52.286;104.306;2023-05-29T08:15:36;2.33;;;1.00;;
77076;SDS011;66003;52.286;104.306;2023-05-29T08:18:02;3.97;;;1.00;;
77076;SDS011;66003;52.286;104.306;2023-05-29T08:20:29;2.67;;;1.02;;
77076;SDS011;66003;52.286;104.306;2023-05-29T08:22:55;2.17;;;1.08;;
77076;SDS011;66003;52.286;104.306;2023-05-29T08:25:21;1.38;;;0.45;;
77076;SDS011;66003;52.286;104.306;2023-05-29T08:27:48;1.65;;;0.85;;
77076;SDS011;66003;52.286;104.306;2023-05-29T08:30:15;1.15;;;0.50;;
77076;SDS011;66003;52.286;104.306;2023-05-29T08:32:41;2.40;;;0.85;;
77076;SDS011;66003;52.286;104.306;2023-05-29T08:35:08;1.30;;;0.43;;
77076;SDS011;66003;52.286;104.306;2023-05-29T08:37:34;1.48;;;0.47;;
77076;SDS011;66003;52.286;104.306;2023-05-29T08:40:01;3.80;;;1.05;;
77076;SDS011;66003;52.286;104.306;2023-05-29T08:42:33;2.45;;;1.02;;
77076;SDS011;66003;52.286;104.306;2023-05-29T08:45:05;1.90;;;0.70;;
77076;SDS011;66003;52.286;104.306;2023-05-29T08:47:36;2.30;;;0.73;;
77076;SDS011;66003;52.286;104.306;2023-05-29T08:50:07;1.95;;;0.65;;
77076;SDS011;66003;52.286;104.306;2023-05-29T08:52:34;1.40;;;0.50;;
77076;SDS011;66003;52.286;104.306;2023-05-29T08:55:04;1.77;;;1.00;;
77076;SDS011;66003;52.286;104.306;2023-05-29T08:57:32;2.17;;;0.82;;
77076;SDS011;66003;52.286;104.306;2023-05-29T08:59:59;4.38;;;1.40;;
77076;SDS011;66003;52.286;104.306;2023-05-29T09:02:32;9.55;;;1.02;;
77076;SDS011;66003;52.286;104.306;2023-05-29T09:05:01;1.75;;;0.88;;
77076;SDS011;66003;52.286;104.306;2023-05-29T09:07:29;2.28;;;1.02;;
77076;SDS011;66003;52.286;104.306;2023-05-29T09:09:56;2.72;;;0.90;;
77076;SDS011;66003;52.286;104.306;2023-05-29T09:12:24;1.58;;;0.70;;
77076;SDS011;66003;52.286;104.306;2023-05-29T09:14:50;2.58;;;1.23;;
77076;SDS011;66003;52.286;104.306;2023-05-29T09:17:17;3.78;;;0.85;;
77076;SDS011;66003;52.286;104.306;2023-05-29T09:19:43;2.95;;;1.00;;
77076;SDS011;66003;52.286;104.306;2023-05-29T09:22:11;2.13;;;0.70;;
77076;SDS011;66003;52.286;104.306;2023-05-29T09:24:45;3.92;;;0.75;;
77076;SDS011;66003;52.286;104.306;2023-05-29T09:27:13;2.42;;;0.43;;
77076;SDS011;66003;52.286;104.306;2023-05-29T09:32:07;2.78;;;1.05;;
77076;SDS011;66003;52.286;104.306;2023-05-29T09:34:34;3.25;;;1.15;;
77076;SDS011;66003;52.286;104.306;2023-05-29T09:37:01;2.88;;;1.00;;
77076;SDS011;66003;52.286;104.306;2023-05-29T09:42:07;3.47;;;1.13;;
77076;SDS011;66003;52.286;104.306;2023-05-29T09:44:35;1.88;;;1.05;;
77076;SDS011;66003;52.286;104.306;2023-05-29T09:47:01;5.07;;;1.02;;
77076;SDS011;66003;52.286;104.306;2023-05-29T09:49:27;3.28;;;0.88;;
77076;SDS011;66003;52.286;104.306;2023-05-29T09:51:54;4.50;;;1.83;;
77076;SDS011;66003;52.286;104.306;2023-05-29T09:54:21;1.58;;;0.82;;
77076;SDS011;66003;52.286;104.306;2023-05-29T09:56:47;2.15;;;0.85;;
77076;SDS011;66003;52.286;104.306;2023-05-29T09:59:16;1.80;;;1.00;;
77076;SDS011;66003;52.286;104.306;2023-05-29T10:01:44;3.35;;;1.17;;
77076;SDS011;66003;52.286;104.306;2023-05-29T10:04:10;2.90;;;0.68;;
77076;SDS011;66003;52.286;104.306;2023-05-29T10:06:38;2.17;;;1.27;;
77076;SDS011;66003;52.286;104.306;2023-05-29T10:09:15;3.50;;;0.80;;
77076;SDS011;66003;52.286;104.306;2023-05-29T10:14:17;4.22;;;1.70;;
77076;SDS011;66003;52.286;104.306;2023-05-29T10:16:49;2.03;;;0.82;;
77076;SDS011;66003;52.286;104.306;2023-05-29T10:19:18;3.13;;;0.95;;
77076;SDS011;66003;52.286;104.306;2023-05-29T10:21:49;3.03;;;1.20;;
77076;SDS011;66003;52.286;104.306;2023-05-29T10:24:19;3.10;;;0.90;;
77076;SDS011;66003;52.286;104.306;2023-05-29T10:26:47;5.20;;;2.05;;
77076;SDS011;66003;52.286;104.306;2023-05-29T10:37:59;3.58;;;0.95;;
77076;SDS011;66003;52.286;104.306;2023-05-29T10:40:35;5.00;;;1.20;;
77076;SDS011;66003;52.286;104.306;2023-05-29T10:43:02;4.53;;;1.27;;
77076;SDS011;66003;52.286;104.306;2023-05-29T10:50:37;2.13;;;1.33;;
77076;SDS011;66003;52.286;104.306;2023-05-29T10:53:09;7.05;;;1.65;;
77076;SDS011;66003;52.286;104.306;2023-05-29T10:55:40;4.32;;;1.13;;
77076;SDS011;66003;52.286;104.306;2023-05-29T10:58:07;3.38;;;1.45;;
77076;SDS011;66003;52.286;104.306;2023-05-29T11:00:50;5.07;;;1.33;;
77076;SDS011;66003;52.286;104.306;2023-05-29T11:05:56;4.13;;;1.77;;
77076;SDS011;66003;52.286;104.306;2023-05-29T11:08:35;3.53;;;1.98;;
77076;SDS011;66003;52.286;104.306;2023-05-29T11:11:12;3.50;;;1.60;;
77076;SDS011;66003;52.286;104.306;2023-05-29T11:13:55;5.15;;;2.13;;
77076;SDS011;66003;52.286;104.306;2023-05-29T11:18:54;3.83;;;1.20;;
77076;SDS011;66003;52.286;104.306;2023-05-29T11:21:31;7.50;;;1.98;;
77076;SDS011;66003;52.286;104.306;2023-05-29T11:24:03;4.70;;;1.65;;
77076;SDS011;66003;52.286;104.306;2023-05-29T11:26:33;3.28;;;1.40;;
77076;SDS011;66003;52.286;104.306;2023-05-29T11:29:05;7.03;;;1.67;;
77076;SDS011;66003;52.286;104.306;2023-05-29T11:31:36;4.65;;;1.77;;
77076;SDS011;66003;52.286;104.306;2023-05-29T11:34:02;4.32;;;1.50;;
77076;SDS011;66003;52.286;104.306;2023-05-29T11:36:32;2.78;;;1.60;;
77076;SDS011;66003;52.286;104.306;2023-05-29T11:39:00;4.65;;;1.10;;
77076;SDS011;66003;52.286;104.306;2023-05-29T11:41:26;6.50;;;1.65;;
77076;SDS011;66003;52.286;104.306;2023-05-29T11:43:56;4.68;;;1.13;;
77076;SDS011;66003;52.286;104.306;2023-05-29T11:46:24;4.65;;;2.22;;
77076;SDS011;66003;52.286;104.306;2023-05-29T11:48:52;4.07;;;1.88;;
77076;SDS011;66003;52.286;104.306;2023-05-29T11:51:18;5.15;;;1.42;;
77076;SDS011;66003;52.286;104.306;2023-05-29T11:53:46;3.40;;;1.63;;
77076;SDS011;66003;52.286;104.306;2023-05-29T11:56:13;4.03;;;2.03;;
77076;SDS011;66003;52.286;104.306;2023-05-29T11:58:40;3.63;;;1.40;;
77076;SDS011;66003;52.286;104.306;2023-05-29T12:01:07;5.03;;;1.73;;
77076;SDS011;66003;52.286;104.306;2023-05-29T12:03:37;4.65;;;1.45;;
77076;SDS011;66003;52.286;104.306;2023-05-29T12:06:05;9.70;;;3.40;;
77076;SDS011;66003;52.286;104.306;2023-05-29T12:08:32;9.88;;;2.20;;
77076;SDS011;66003;52.286;104.306;2023-05-29T12:10:58;7.35;;;2.05;;
77076;SDS011;66003;52.286;104.306;2023-05-29T12:13:25;6.03;;;2.10;;
77076;SDS011;66003;52.286;104.306;2023-05-29T12:15:52;8.98;;;2.22;;
77076;SDS011;66003;52.286;104.306;2023-05-29T12:18:20;5.60;;;1.95;;
77076;SDS011;66003;52.286;104.306;2023-05-29T12:20:47;6.45;;;1.55;;
77076;SDS011;66003;52.286;104.306;2023-05-29T12:23:13;6.22;;;1.58;;
77076;SDS011;66003;52.286;104.306;2023-05-29T12:25:40;8.30;;;1.65;;
77076;SDS011;66003;52.286;104.306;2023-05-29T12:30:36;5.00;;;1.75;;
77076;SDS011;66003;52.286;104.306;2023-05-29T12:33:03;4.15;;;1.40;;
77076;SDS011;66003;52.286;104.306;2023-05-29T12:35:31;5.30;;;2.00;;
77076;SDS011;66003;52.286;104.306;2023-05-29T12:38:01;7.15;;;1.48;;
77076;SDS011;66003;52.286;104.306;2023-05-29T12:40:31;3.53;;;1.52;;
77076;SDS011;66003;52.286;104.306;2023-05-29T12:43:03;2.22;;;1.58;;
77076;SDS011;66003;52.286;104.306;2023-05-29T12:45:31;2.92;;;1.52;;
77076;SDS011;66003;52.286;104.306;2023-05-29T12:47:59;4.28;;;1.40;;
77076;SDS011;66003;52.286;104.306;2023-05-29T12:50:45;4.20;;;1.50;;
77076;SDS011;66003;52.286;104.306;2023-05-29T12:53:15;9.80;;;1.75;;
77076;SDS011;66003;52.286;104.306;2023-05-29T12:55:42;4.80;;;1.70;;
77076;SDS011;66003;52.286;104.306;2023-05-29T12:58:10;8.80;;;2.25;;
77076;SDS011;66003;52.286;104.306;2023-05-29T13:00:41;5.30;;;1.90;;
77076;SDS011;66003;52.286;104.306;2023-05-29T13:03:09;4.13;;;1.75;;
77076;SDS011;66003;52.286;104.306;2023-05-29T13:05:36;7.28;;;1.83;;
77076;SDS011;66003;52.286;104.306;2023-05-29T13:08:03;9.80;;;2.92;;
77076;SDS011;66003;52.286;104.306;2023-05-29T13:10:33;10.70;;;1.75;;
77076;SDS011;66003;52.286;104.306;2023-05-29T13:13:13;7.45;;;2.00;;
77076;SDS011;66003;52.286;104.306;2023-05-29T13:15:49;7.10;;;2.10;;
77076;SDS011;66003;52.286;104.306;2023-05-29T13:18:15;5.53;;;1.40;;
77076;SDS011;66003;52.286;104.306;2023-05-29T13:20:42;5.35;;;1.92;;
77076;SDS011;66003;52.286;104.306;2023-05-29T13:25:34;4.05;;;1.50;;
77076;SDS011;66003;52.286;104.306;2023-05-29T13:28:00;3.80;;;1.42;;
77076;SDS011;66003;52.286;104.306;2023-05-29T13:30:27;5.30;;;1.65;;
77076;SDS011;66003;52.286;104.306;2023-05-29T13:35:19;3.47;;;1.63;;
77076;SDS011;66003;52.286;104.306;2023-05-29T13:37:46;3.75;;;1.45;;
77076;SDS011;66003;52.286;104.306;2023-05-29T13:42:41;3.65;;;1.10;;
77076;SDS011;66003;52.286;104.306;2023-05-29T13:45:08;3.05;;;1.10;;
77076;SDS011;66003;52.286;104.306;2023-05-29T13:47:35;3.97;;;1.10;;
77076;SDS011;66003;52.286;104.306;2023-05-29T13:50:02;5.35;;;1.50;;
77076;SDS011;66003;52.286;104.306;2023-05-29T13:52:33;2.70;;;1.20;;
77076;SDS011;66003;52.286;104.306;2023-05-29T13:59:57;3.22;;;1.63;;
77076;SDS011;66003;52.286;104.306;2023-05-29T14:02:23;4.55;;;1.60;;
77076;SDS011;66003;52.286;104.306;2023-05-29T14:04:51;4.70;;;1.38;;
77076;SDS011;66003;52.286;104.306;2023-05-29T14:07:17;3.67;;;1.77;;
77076;SDS011;66003;52.286;104.306;2023-05-29T14:09:43;4.40;;;1.48;;
77076;SDS011;66003;52.286;104.306;2023-05-29T14:12:10;4.97;;;1.90;;
77076;SDS011;66003;52.286;104.306;2023-05-29T14:14:36;3.97;;;1.27;;
77076;SDS011;66003;52.286;104.306;2023-05-29T14:17:02;3.30;;;1.40;;
77076;SDS011;66003;52.286;104.306;2023-05-29T14:19:30;5.45;;;1.15;;
77076;SDS011;66003;52.286;104.306;2023-05-29T14:21:56;9.75;;;1.75;;
77076;SDS011;66003;52.286;104.306;2023-05-29T14:24:23;3.20;;;1.30;;
77076;SDS011;66003;52.286;104.306;2023-05-29T14:26:50;3.35;;;1.48;;
77076;SDS011;66003;52.286;104.306;2023-05-29T14:29:16;6.55;;;2.63;;
77076;SDS011;66003;52.286;104.306;2023-05-29T14:31:43;4.10;;;1.70;;
77076;SDS011;66003;52.286;104.306;2023-05-29T14:34:09;4.13;;;1.13;;
77076;SDS011;66003;52.286;104.306;2023-05-29T14:36:37;2.30;;;1.17;;
77076;SDS011;66003;52.286;104.306;2023-05-29T14:41:29;3.35;;;1.40;;
77076;SDS011;66003;52.286;104.306;2023-05-29T14:43:55;3.53;;;1.20;;
77076;SDS011;66003;52.286;104.306;2023-05-29T14:46:25;3.15;;;1.40;;
77076;SDS011;66003;52.286;104.306;2023-05-29T14:48:53;4.28;;;0.98;;
77076;SDS011;66003;52.286;104.306;2023-05-29T14:51:20;3.83;;;0.95;;
77076;SDS011;66003;52.286;104.306;2023-05-29T14:53:46;2.40;;;1.02;;
77076;SDS011;66003;52.286;104.306;2023-05-29T14:56:13;3.63;;;1.40;;
77076;SDS011;66003;52.286;104.306;2023-05-29T14:58:39;3.47;;;1.02;;
77076;SDS011;66003;52.286;104.306;2023-05-29T15:01:06;4.57;;;1.20;;
77076;SDS011;66003;52.286;104.306;2023-05-29T15:06:01;2.97;;;0.95;;
77076;SDS011;66003;52.286;104.306;2023-05-29T15:08:29;2.75;;;0.90;;
77076;SDS011;66003;52.286;104.306;2023-05-29T15:11:01;1.92;;;0.80;;
77076;SDS011;66003;52.286;104.306;2023-05-29T15:13:32;1.75;;;1.20;;
77076;SDS011;66003;52.286;104.306;2023-05-29T15:18:29;2.63;;;0.93;;
77076;SDS011;66003;52.286;104.306;2023-05-29T15:20:56;5.28;;;0.80;;
77076;SDS011;66003;52.286;104.306;2023-05-29T15:23:24;2.22;;;0.70;;